Terminal Aerodrome Forecast
Issued by NWS Shreveport, LA

Home | Current Version | Previous Version | Text Only | Print | Product List | Glossary On
Versions: 1 2 3 4 5 6 7 8 9 10 11 12 13 14 15 16 17 18 19
000
FTUS44 KSHV 271723
TAFLFK
TAF
KLFK 271723Z 2718/2818 VRB05KT P6SM VCSH SCT025 SCT050
     FM272100 VRB06KT P6SM VCTS SCT020 BKN040CB
     FM280200 VRB03KT P6SM VCSH SCT040 BKN100
     FM280400 VRB03KT 4SM BR SCT002
     FM281400 VRB03KT P6SM FEW005 SCT025
     FM281700 08008KT P6SM VCSH SCT025 BKN040=

USA.gov is the U.S. government's official web portal to all federal, state and local government web resources and services.